TAP1908 LPFR-LPPT
Flight info
| Callsign | TAP1908 |
|---|---|
| Flight time | 0h 29m |
| Altitude | 24000 |
| Route | ODEMI DCT VATZI |
| Aircraft | A320/M-SDE3FGHIRWY/LB1 |
Departure
| Time | 2026-05-07 20:53 |
|---|---|
| Airport | Faro - Gago Coutinho International Airport (LPFR) |
Arrival
| Time | 2026-05-07 21:22 |
|---|---|
| Airport | Lisbon Humberto Delgado Airport (LPPT) |
| Time | Latitude | Longitude | Altitude | Speed | Heading |
|---|---|---|---|---|---|
| 2026-05-07 20:37 | 37.01937 | -7.96973 | 23 ft | 0 kts | 10° |
| 2026-05-07 20:45 | 37.01936 | -7.96973 | 20 ft | 0 kts | 10° |
| 2026-05-07 20:45 | 37.01928 | -7.96975 | 20 ft | 2 kts | 9° |
| 2026-05-07 20:45 | 37.01912 | -7.96979 | 20 ft | 2 kts | 10° |
| 2026-05-07 20:46 | 37.01896 | -7.96982 | 22 ft | 2 kts | 11° |
| 2026-05-07 20:46 | 37.01880 | -7.96986 | 22 ft | 2 kts | 11° |
| 2026-05-07 20:46 | 37.01864 | -7.96990 | 23 ft | 2 kts | 12° |
| 2026-05-07 20:46 | 37.01848 | -7.96995 | 21 ft | 2 kts | 14° |
| 2026-05-07 20:47 | 37.01832 | -7.97000 | 23 ft | 2 kts | 18° |
| 2026-05-07 20:47 | 37.01816 | -7.97007 | 21 ft | 2 kts | 34° |
| 2026-05-07 20:47 | 37.01806 | -7.97022 | 22 ft | 1 kts | 100° |
| 2026-05-07 20:47 | 37.01807 | -7.97027 | 21 ft | 0 kts | 101° |
| 2026-05-07 20:48 | 37.01800 | -7.96971 | 20 ft | 13 kts | 99° |
| 2026-05-07 20:49 | 37.01761 | -7.96895 | 20 ft | 11 kts | 173° |
| 2026-05-07 20:49 | 37.01691 | -7.96897 | 20 ft | 13 kts | 158° |
| 2026-05-07 20:49 | 37.01654 | -7.96774 | 20 ft | 15 kts | 100° |
| 2026-05-07 20:49 | 37.01636 | -7.96645 | 20 ft | 15 kts | 100° |
| 2026-05-07 20:50 | 37.01617 | -7.96513 | 20 ft | 17 kts | 100° |
| 2026-05-07 20:50 | 37.01597 | -7.96376 | 20 ft | 15 kts | 100° |
| 2026-05-07 20:50 | 37.01579 | -7.96251 | 20 ft | 14 kts | 100° |
| 2026-05-07 20:50 | 37.01558 | -7.96107 | 20 ft | 18 kts | 99° |
| 2026-05-07 20:51 | 37.01539 | -7.95960 | 20 ft | 16 kts | 99° |
| 2026-05-07 20:51 | 37.01499 | -7.95843 | 20 ft | 13 kts | 150° |
| 2026-05-07 20:51 | 37.01444 | -7.95841 | 20 ft | 0 kts | 190° |
| 2026-05-07 20:52 | 37.01442 | -7.95841 | 20 ft | 3 kts | 190° |
| 2026-05-07 20:52 | 37.01377 | -7.95855 | 20 ft | 12 kts | 192° |
| 2026-05-07 20:52 | 37.01354 | -7.95943 | 20 ft | 16 kts | 280° |
| 2026-05-07 20:52 | 37.01410 | -7.96333 | 22 ft | 80 kts | 280° |
| 2026-05-07 20:53 | 37.01545 | -7.97278 | 23 ft | 137 kts | 280° |
| 2026-05-07 20:53 | 37.01731 | -7.98560 | 421 ft | 151 kts | 281° |
| 2026-05-07 20:53 | 37.01925 | -7.99850 | 1186 ft | 151 kts | 285° |
| 2026-05-07 20:53 | 37.02139 | -8.01231 | 1587 ft | 172 kts | 285° |
| 2026-05-07 20:54 | 37.02373 | -8.02784 | 1938 ft | 192 kts | 283° |
| 2026-05-07 20:54 | 37.02625 | -8.04509 | 2391 ft | 207 kts | 283° |
| 2026-05-07 20:54 | 37.02883 | -8.06293 | 3155 ft | 211 kts | 281° |
| 2026-05-07 20:54 | 37.03149 | -8.08126 | 3881 ft | 217 kts | 280° |
| 2026-05-07 20:55 | 37.03427 | -8.10021 | 4573 ft | 225 kts | 279° |
| 2026-05-07 20:55 | 37.03859 | -8.11899 | 5237 ft | 233 kts | 298° |
| 2026-05-07 20:55 | 37.04937 | -8.13468 | 5736 ft | 249 kts | 327° |
| 2026-05-07 20:55 | 37.06579 | -8.14465 | 6128 ft | 270 kts | 340° |
| 2026-05-07 20:56 | 37.08365 | -8.15410 | 6652 ft | 287 kts | 339° |
| 2026-05-07 20:56 | 37.10202 | -8.16402 | 7375 ft | 294 kts | 338° |
| 2026-05-07 20:56 | 37.12089 | -8.17439 | 8202 ft | 298 kts | 336° |
| 2026-05-07 20:56 | 37.13994 | -8.18499 | 9051 ft | 301 kts | 335° |
| 2026-05-07 20:57 | 37.15923 | -8.19570 | 9909 ft | 304 kts | 334° |
| 2026-05-07 20:57 | 37.17889 | -8.20663 | 10429 ft | 319 kts | 334° |
| 2026-05-07 20:57 | 37.20000 | -8.21841 | 10653 ft | 343 kts | 334° |
| 2026-05-07 20:57 | 37.22254 | -8.23098 | 10872 ft | 365 kts | 334° |
| 2026-05-07 20:58 | 37.24613 | -8.24412 | 11393 ft | 374 kts | 334° |
| 2026-05-07 20:58 | 37.27008 | -8.25744 | 12057 ft | 379 kts | 334° |
| 2026-05-07 20:58 | 37.29437 | -8.27096 | 12740 ft | 384 kts | 334° |
| 2026-05-07 20:58 | 37.31895 | -8.28458 | 13418 ft | 389 kts | 334° |
| 2026-05-07 20:59 | 37.34367 | -8.29822 | 14047 ft | 393 kts | 334° |
| 2026-05-07 20:59 | 37.36879 | -8.31208 | 14628 ft | 398 kts | 334° |
| 2026-05-07 20:59 | 37.39436 | -8.32626 | 15195 ft | 402 kts | 333° |
| 2026-05-07 20:59 | 37.42028 | -8.34070 | 15793 ft | 406 kts | 332° |
| 2026-05-07 21:00 | 37.44572 | -8.35573 | 16332 ft | 410 kts | 326° |
| 2026-05-07 21:00 | 37.46907 | -8.37614 | 16868 ft | 407 kts | 314° |
| 2026-05-07 21:00 | 37.48869 | -8.40165 | 17437 ft | 403 kts | 302° |
| 2026-05-07 21:00 | 37.50392 | -8.43108 | 18011 ft | 398 kts | 291° |
| 2026-05-07 21:01 | 37.51424 | -8.46298 | 18560 ft | 392 kts | 280° |
| 2026-05-07 21:01 | 37.52126 | -8.49614 | 19075 ft | 392 kts | 278° |
| 2026-05-07 21:01 | 37.52820 | -8.52950 | 19567 ft | 395 kts | 279° |
| 2026-05-07 21:01 | 37.53518 | -8.56300 | 19881 ft | 396 kts | 279° |
| 2026-05-07 21:02 | 37.54223 | -8.59673 | 19955 ft | 404 kts | 279° |
| 2026-05-07 21:02 | 37.54947 | -8.63158 | 19969 ft | 418 kts | 279° |
| 2026-05-07 21:02 | 37.55690 | -8.66740 | 19967 ft | 424 kts | 279° |
| 2026-05-07 21:02 | 37.56444 | -8.70344 | 19967 ft | 426 kts | 279° |
| 2026-05-07 21:03 | 37.57203 | -8.73960 | 19972 ft | 427 kts | 279° |
| 2026-05-07 21:03 | 37.57985 | -8.77576 | 19964 ft | 430 kts | 282° |
| 2026-05-07 21:03 | 37.59183 | -8.81035 | 19959 ft | 428 kts | 294° |
| 2026-05-07 21:03 | 37.60887 | -8.84045 | 19961 ft | 416 kts | 306° |
| 2026-05-07 21:04 | 37.62973 | -8.86496 | 19971 ft | 405 kts | 317° |
| 2026-05-07 21:04 | 37.65346 | -8.88355 | 19963 ft | 401 kts | 329° |
| 2026-05-07 21:04 | 37.67958 | -8.89625 | 19963 ft | 404 kts | 337° |
| 2026-05-07 21:04 | 37.70631 | -8.90704 | 19964 ft | 403 kts | 337° |
| 2026-05-07 21:05 | 37.73265 | -8.91770 | 19966 ft | 403 kts | 337° |
| 2026-05-07 21:05 | 37.75936 | -8.92855 | 19910 ft | 404 kts | 337° |
| 2026-05-07 21:05 | 37.78602 | -8.93943 | 19557 ft | 401 kts | 337° |
| 2026-05-07 21:05 | 37.81253 | -8.95029 | 19320 ft | 400 kts | 337° |
| 2026-05-07 21:06 | 37.83905 | -8.96112 | 19081 ft | 399 kts | 337° |
| 2026-05-07 21:06 | 37.86540 | -8.97187 | 18625 ft | 398 kts | 337° |
| 2026-05-07 21:06 | 37.89177 | -8.98264 | 18085 ft | 398 kts | 337° |
| 2026-05-07 21:06 | 37.91796 | -8.99333 | 17529 ft | 397 kts | 338° |
| 2026-05-07 21:07 | 37.94399 | -9.00396 | 17298 ft | 387 kts | 338° |
| 2026-05-07 21:07 | 37.96923 | -9.01423 | 17162 ft | 374 kts | 338° |
| 2026-05-07 21:07 | 37.99350 | -9.02410 | 17012 ft | 359 kts | 337° |
| 2026-05-07 21:07 | 38.01696 | -9.03374 | 16655 ft | 351 kts | 337° |
| 2026-05-07 21:08 | 38.04003 | -9.04346 | 16162 ft | 348 kts | 337° |
| 2026-05-07 21:08 | 38.06292 | -9.05322 | 15681 ft | 346 kts | 338° |
| 2026-05-07 21:08 | 38.08570 | -9.06298 | 15216 ft | 344 kts | 338° |
| 2026-05-07 21:08 | 38.10826 | -9.07264 | 14761 ft | 342 kts | 338° |
| 2026-05-07 21:09 | 38.13072 | -9.08219 | 14223 ft | 337 kts | 339° |
| 2026-05-07 21:09 | 38.15298 | -9.08876 | 14023 ft | 323 kts | 355° |
| 2026-05-07 21:09 | 38.17496 | -9.08641 | 13635 ft | 315 kts | 17° |
| 2026-05-07 21:09 | 38.19470 | -9.07529 | 13128 ft | 308 kts | 37° |
| 2026-05-07 21:10 | 38.21030 | -9.05732 | 12587 ft | 300 kts | 53° |
| 2026-05-07 21:10 | 38.22379 | -9.03758 | 12056 ft | 298 kts | 52° |
| 2026-05-07 21:10 | 38.23736 | -9.01783 | 11561 ft | 294 kts | 52° |
| 2026-05-07 21:10 | 38.25074 | -8.99840 | 11138 ft | 290 kts | 52° |
| 2026-05-07 21:11 | 38.26393 | -8.97923 | 10731 ft | 287 kts | 52° |
| 2026-05-07 21:11 | 38.27705 | -8.96014 | 10327 ft | 285 kts | 52° |
| 2026-05-07 21:11 | 38.30494 | -8.92487 | 9495 ft | 283 kts | 28° |
| 2026-05-07 21:12 | 38.32375 | -8.91862 | 9091 ft | 281 kts | 358° |
| 2026-05-07 21:12 | 38.34242 | -8.92393 | 8657 ft | 274 kts | 329° |
| 2026-05-07 21:12 | 38.35717 | -8.93847 | 8257 ft | 267 kts | 312° |
| 2026-05-07 21:12 | 38.37050 | -8.95495 | 7851 ft | 267 kts | 312° |
| 2026-05-07 21:13 | 38.38352 | -8.97154 | 7624 ft | 259 kts | 305° |
| 2026-05-07 21:13 | 38.39386 | -8.98993 | 7256 ft | 257 kts | 306° |
| 2026-05-07 21:13 | 38.40593 | -9.00684 | 6979 ft | 255 kts | 309° |
| 2026-05-07 21:13 | 38.41784 | -9.02336 | 6693 ft | 252 kts | 308° |
| 2026-05-07 21:14 | 38.42933 | -9.03995 | 6423 ft | 248 kts | 307° |
| 2026-05-07 21:14 | 38.44040 | -9.05658 | 6183 ft | 244 kts | 306° |
| 2026-05-07 21:14 | 38.45100 | -9.07312 | 5960 ft | 241 kts | 306° |
| 2026-05-07 21:14 | 38.46147 | -9.08981 | 5743 ft | 239 kts | 306° |
| 2026-05-07 21:15 | 38.47176 | -9.10632 | 5516 ft | 236 kts | 306° |
| 2026-05-07 21:15 | 38.48190 | -9.12271 | 5324 ft | 234 kts | 306° |
| 2026-05-07 21:15 | 38.49190 | -9.13897 | 5114 ft | 232 kts | 306° |
| 2026-05-07 21:15 | 38.50178 | -9.15505 | 4977 ft | 226 kts | 306° |
| 2026-05-07 21:16 | 38.51146 | -9.17087 | 4883 ft | 225 kts | 306° |
| 2026-05-07 21:16 | 38.52109 | -9.18659 | 4779 ft | 223 kts | 306° |
| 2026-05-07 21:16 | 38.53120 | -9.20172 | 4688 ft | 224 kts | 318° |
| 2026-05-07 21:16 | 38.54444 | -9.21150 | 4537 ft | 219 kts | 336° |
| 2026-05-07 21:17 | 38.55837 | -9.21883 | 4370 ft | 214 kts | 335° |
| 2026-05-07 21:17 | 38.57189 | -9.22598 | 4242 ft | 207 kts | 335° |
| 2026-05-07 21:17 | 38.58483 | -9.23261 | 4114 ft | 198 kts | 341° |
| 2026-05-07 21:17 | 38.59392 | -9.23403 | 3988 ft | 195 kts | 2° |
| 2026-05-07 21:18 | 38.61066 | -9.22703 | 3679 ft | 189 kts | 20° |
| 2026-05-07 21:18 | 38.62272 | -9.22056 | 3433 ft | 185 kts | 19° |
| 2026-05-07 21:18 | 38.63055 | -9.21638 | 3267 ft | 183 kts | 19° |
| 2026-05-07 21:18 | 38.64221 | -9.21016 | 2993 ft | 181 kts | 19° |
| 2026-05-07 21:19 | 38.65375 | -9.20400 | 2756 ft | 178 kts | 19° |
| 2026-05-07 21:19 | 38.66506 | -9.19796 | 2515 ft | 173 kts | 20° |
| 2026-05-07 21:19 | 38.67586 | -9.19220 | 2286 ft | 162 kts | 19° |
| 2026-05-07 21:19 | 38.68874 | -9.18533 | 2007 ft | 145 kts | 20° |
| 2026-05-07 21:20 | 38.69495 | -9.18202 | 1852 ft | 142 kts | 20° |
| 2026-05-07 21:20 | 38.70394 | -9.17722 | 1656 ft | 139 kts | 19° |
| 2026-05-07 21:20 | 38.71281 | -9.17251 | 1465 ft | 138 kts | 20° |
| 2026-05-07 21:20 | 38.72157 | -9.16784 | 1303 ft | 138 kts | 20° |
| 2026-05-07 21:21 | 38.73058 | -9.16303 | 1109 ft | 139 kts | 20° |
| 2026-05-07 21:21 | 38.73942 | -9.15832 | 920 ft | 140 kts | 21° |
| 2026-05-07 21:21 | 38.74856 | -9.15343 | 731 ft | 140 kts | 19° |
| 2026-05-07 21:21 | 38.75767 | -9.14856 | 575 ft | 142 kts | 19° |
| 2026-05-07 21:22 | 38.76678 | -9.14369 | 385 ft | 142 kts | 19° |
| 2026-05-07 21:22 | 38.77504 | -9.13929 | 345 ft | 109 kts | 22° |
| 2026-05-07 21:22 | 38.78044 | -9.13639 | 351 ft | 60 kts | 22° |
| 2026-05-07 21:22 | 38.78302 | -9.13447 | 351 ft | 33 kts | 46° |
| 2026-05-07 21:23 | 38.78371 | -9.13291 | 355 ft | 16 kts | 111° |
| 2026-05-07 21:23 | 38.78285 | -9.13282 | 356 ft | 13 kts | 201° |
| 2026-05-07 21:23 | 38.78195 | -9.13326 | 353 ft | 15 kts | 202° |